Aeroporto :







RITROVATECI SU...

 
LOGIN :

Iscrizione | Disclaimer

   EN    FR    IT 

 









Sommario :    VFR   VFR Marginale   IFR   IFR Intensivo   IFR Molto Intensivo
Visibilità : 
Base nubi : 
>= 8 km
>= 3000ft
5 / 8 km
1000 / 3000 ft
1500m / 5 km
500 / 1000 ft
800 / 1500m
200 / 500 ft
< 800m
< 200 ft
Simboli :   Temporali  Nebbia  Neve Forte  Precipitazioni Forti  Vento > 20 kt







- Altitudine del aeroporto : 108 ft
- Codice IATA : YGP


CYGP - Gaspé

ULTIMO METAR :
  • 241100Z 36007KT 15SM SCT030 BKN040 12/07 A3012 RMK SC3CU3 SLP203

METARs OBSOLETI :
  • 241011Z 02005KT 340V050 15SM OVC030 12/08 A3008 RMK SC8 SLP190
  • 241000Z 02005KT 15SM -DZ FEW010 OVC030 12/08 A3008 RMK ST1SC7 SLP188
  • 240900Z 33004KT 310V030 15SM OVC020 12/08 A3004 RMK SC8 SLP176

TAF TAF CYGP
Valido dal 24 a 08 ore il 24 a 20 ore UTC


240738Z 2408/2420 01007KT P6SM OVC030
TEMPO 2408/2415 5SM -RA BR OVC020
FM241500 36010KT P6SM SCT030 RMK NXT FCST BY 241400Z
Nessun NOTAM noto per questo aeroporto.



MetMap, La meteo Aeronautica in un colpo d'occhio ! - Copyright ORBIFLY Dicembre 2007 - Disclaimer

ORBIFLY MET'MAP TEAM :

Programmazione e sviluppo : Alexandra Zaïnal
Concezione e sviluppo : Baudouin d'Aumeries
Co-Programmazione e sviluppo : Marc-Olivier Méhu
Supporto tecnico e logistico : Manuel Goepfert
Aiuto per la traduzione : Arnaldo La Scala

Contatto : metmap@orbifly.com




FONTI E CREDITI :

   NOAA